METAR Data
IDs: Format: Raw Decoded Include TAF

Data at: 1246 UTC 26 Feb 2021

LROP 261230Z 27010KT CAVOK 22/05 Q1024 NOSIG